Time;durP1;ratioP1;P1;durP2;ratioP2;P2;SDS_P1;SDS_P2;PMS_P1;PMS_P2;Temp;Humidity;BMP_temperature;BMP_pressure;BME280_temperature;BME280_humidity;BME280_pressure;Samples;Min_cycle;Max_cycle;Signal;HPM_P1;HPM_P2
2023/03/09 00:00:15;;;;;;;0.40;0.40;;;;;;;8.15;59.28;99344.94;5028151;28;20033;-65
2023/03/09 00:02:41;;;;;;;0.40;0.40;;;;;;;7.63;61.09;99352.41;5029047;28;20022;-65
2023/03/09 00:05:10;;;;;;;0.30;0.30;;;;;;;8.61;58.22;99351.72;5027862;28;20497;-66
2023/03/09 00:07:36;;;;;;;0.40;0.40;;;;;;;8.35;58.17;99347.13;5031420;28;20032;-66
2023/03/09 00:10:03;;;;;;;0.30;0.30;;;;;;;8.29;59.13;99348.94;5031727;28;20126;-64
2023/03/09 00:12:28;;;;;;;0.40;0.40;;;;;;;7.82;60.58;99356.47;5028782;28;20065;-65
2023/03/09 00:14:54;;;;;;;0.30;0.30;;;;;;;7.77;60.87;99348.38;5031711;28;20022;-64
2023/03/09 00:17:19;;;;;;;0.30;0.30;;;;;;;8.22;58.53;99345.56;5029690;28;20036;-64
2023/03/09 00:19:44;;;;;;;0.40;0.40;;;;;;;8.44;58.39;99335.75;5031962;28;20124;-64
2023/03/09 00:22:10;;;;;;;0.47;0.47;;;;;;;8.73;57.69;99333.69;5030711;28;20037;-65
2023/03/09 00:24:35;;;;;;;0.30;0.30;;;;;;;8.33;58.92;99341.22;5022537;28;20578;-64
2023/03/09 00:27:01;;;;;;;0.30;0.30;;;;;;;8.31;59.16;99337.97;5029083;28;20036;-65
2023/03/09 00:29:29;;;;;;;0.30;0.30;;;;;;;8.84;57.92;99346.94;5014855;28;20038;-64
2023/03/09 00:31:56;;;;;;;0.30;0.30;;;;;;;7.90;59.91;99341.91;5031215;28;20037;-65
2023/03/09 00:34:22;;;;;;;0.32;0.32;;;;;;;8.34;59.28;99348.97;5028646;28;20509;-64
2023/03/09 00:36:48;;;;;;;0.32;0.32;;;;;;;8.50;57.85;99345.47;5029706;28;20076;-64
2023/03/09 00:39:15;;;;;;;0.40;0.40;;;;;;;8.25;58.87;99334.41;5011702;28;20037;-64
2023/03/09 00:41:42;;;;;;;0.40;0.40;;;;;;;8.42;58.40;99342.38;5017386;28;20029;-66
2023/03/09 00:44:08;;;;;;;0.40;0.40;;;;;;;8.38;59.21;99333.22;5032113;28;20045;-65
2023/03/09 00:46:34;;;;;;;0.40;0.40;;;;;;;8.07;59.80;99320.47;5032170;28;20504;-63
2023/03/09 00:49:00;;;;;;;0.30;0.30;;;;;;;8.42;58.28;99327.16;5032149;28;20045;-66
2023/03/09 00:51:25;;;;;;;0.30;0.30;;;;;;;8.24;59.64;99330.06;5014254;28;20038;-64
2023/03/09 00:53:51;;;;;;;0.40;0.40;;;;;;;7.55;61.57;99338.63;5018113;28;20034;-63
2023/03/09 00:56:26;;;;;;;0.30;0.30;;;;;;;8.67;58.20;99345.38;5026731;28;20087;-64
2023/03/09 00:58:53;;;;;;;0.30;0.30;;;;;;;8.40;58.17;99342.66;5016002;28;20038;-64
2023/03/09 01:01:19;;;;;;;0.30;0.30;;;;;;;8.28;58.53;99349.16;5032242;28;20116;-64
2023/03/09 01:03:45;;;;;;;0.50;0.50;;;;;;;8.82;57.26;99349.06;5005183;28;20073;-65
2023/03/09 01:06:11;;;;;;;0.30;0.30;;;;;;;8.86;56.80;99363.56;5025130;28;20447;-63
2023/03/09 01:08:36;;;;;;;0.30;0.30;;;;;;;8.64;57.39;99362.78;5016989;28;20033;-64
2023/03/09 01:11:06;;;;;;;0.20;0.20;;;;;;;8.88;56.84;99367.88;5032214;28;20037;-63
2023/03/09 01:13:32;;;;;;;0.27;0.27;;;;;;;9.02;56.15;99369.91;5011720;28;20064;-64
2023/03/09 01:15:57;;;;;;;0.38;0.38;;;;;;;8.88;56.77;99366.81;5015292;28;20089;-64
2023/03/09 01:18:23;;;;;;;0.30;0.30;;;;;;;9.29;55.66;99353.88;5013344;28;20033;-66
2023/03/09 01:20:48;;;;;;;0.40;0.40;;;;;;;8.52;57.77;99354.06;5030891;28;20073;-66
2023/03/09 01:23:14;;;;;;;0.28;0.28;;;;;;;8.07;59.04;99349.88;4995744;28;20128;-64
2023/03/09 01:25:39;;;;;;;0.30;0.30;;;;;;;8.05;59.46;99343.97;5013045;28;20034;-64
2023/03/09 01:28:04;;;;;;;0.43;0.43;;;;;;;8.19;58.57;99337.22;5031016;28;20168;-64
2023/03/09 01:30:31;;;;;;;0.45;0.45;;;;;;;8.06;58.63;99341.03;5014299;28;20137;-65
2023/03/09 01:32:56;;;;;;;0.30;0.30;;;;;;;8.38;57.83;99338.59;5032293;28;20462;-65
2023/03/09 01:35:22;;;;;;;0.30;0.30;;;;;;;8.46;57.55;99343.50;5032128;28;20025;-64
2023/03/09 01:37:47;;;;;;;0.38;0.38;;;;;;;8.51;57.46;99362.34;5031851;28;20048;-65
2023/03/09 01:40:18;;;;;;;0.30;0.30;;;;;;;8.82;57.36;99375.06;5032079;28;20531;-65
2023/03/09 01:42:52;;;;;;;0.40;0.40;;;;;;;8.36;57.02;99381.66;5031982;28;20452;-64
2023/03/09 01:45:17;;;;;;;0.30;0.30;;;;;;;8.80;56.50;99394.03;5031730;28;20593;-64
2023/03/09 01:47:43;;;;;;;0.40;0.40;;;;;;;8.44;57.61;99391.94;5032143;28;20029;-65
2023/03/09 01:50:08;;;;;;;0.30;0.30;;;;;;;7.78;59.07;99392.75;5031727;28;20478;-65
2023/03/09 01:52:36;;;;;;;0.30;0.30;;;;;;;8.28;58.27;99391.97;5031397;28;20409;-65
2023/03/09 01:55:01;;;;;;;0.30;0.30;;;;;;;8.09;59.26;99391.41;5031411;28;20133;-65
2023/03/09 01:57:28;;;;;;;0.43;0.43;;;;;;;8.19;58.86;99390.75;5013781;28;20552;-66
2023/03/09 01:59:58;;;;;;;0.40;0.40;;;;;;;8.26;59.33;99388.72;5031484;28;20378;-64
2023/03/09 02:02:28;;;;;;;0.27;0.27;;;;;;;8.11;59.25;99385.81;5031996;28;20109;-65
2023/03/09 02:04:57;;;;;;;0.30;0.30;;;;;;;8.23;59.13;99395.38;5031142;28;20053;-66
2023/03/09 02:07:26;;;;;;;0.50;0.50;;;;;;;8.42;57.84;99401.28;5031158;28;20033;-65
2023/03/09 02:10:22;;;;;;;0.38;0.38;;;;;;;9.17;56.21;99410.28;5031106;28;20391;-66
2023/03/09 02:12:54;;;;;;;0.30;0.30;;;;;;;8.24;58.64;99409.53;5031217;28;20084;-64
2023/03/09 02:15:21;;;;;;;0.30;0.30;;;;;;;9.04;56.59;99407.97;5031033;28;20034;-64
2023/03/09 02:17:48;;;;;;;0.40;0.40;;;;;;;8.30;58.81;99409.41;5012861;28;20037;-65
2023/03/09 02:20:19;;;;;;;0.40;0.40;;;;;;;8.91;57.83;99413.72;5013357;28;20026;-65
2023/03/09 02:22:46;;;;;;;0.40;0.40;;;;;;;8.34;58.38;99405.19;5011304;28;20048;-64
2023/03/09 02:25:22;;;;;;;0.32;0.32;;;;;;;8.13;59.48;99415.78;5027253;28;20033;-65
2023/03/09 02:27:50;;;;;;;0.30;0.30;;;;;;;8.37;58.34;99419.94;5026276;28;20069;-65
2023/03/09 02:30:16;;;;;;;0.30;0.30;;;;;;;8.88;57.34;99416.09;5015366;28;20033;-63
2023/03/09 02:32:41;;;;;;;0.30;0.30;;;;;;;8.76;57.06;99427.75;5031322;28;20066;-65
2023/03/09 02:35:09;;;;;;;0.40;0.40;;;;;;;8.18;58.87;99421.22;5030653;28;20441;-65
2023/03/09 02:37:37;;;;;;;0.28;0.28;;;;;;;8.85;56.90;99420.88;5030640;28;20025;-65
2023/03/09 02:40:38;;;;;;;0.30;0.30;;;;;;;8.35;59.04;99430.91;5030878;28;20040;-64
2023/03/09 02:43:04;;;;;;;0.40;0.40;;;;;;;8.18;58.69;99429.25;5030961;28;20044;-66
2023/03/09 02:45:31;;;;;;;0.40;0.40;;;;;;;8.27;59.66;99430.50;5023776;28;20562;-65
2023/03/09 02:47:58;;;;;;;0.43;0.43;;;;;;;8.42;58.98;99425.38;5011020;28;20033;-65
2023/03/09 02:50:24;;;;;;;0.40;0.40;;;;;;;8.71;57.85;99433.00;5011324;28;20029;-66
2023/03/09 02:52:49;;;;;;;0.40;0.40;;;;;;;8.25;58.92;99443.31;5010995;28;20034;-66
2023/03/09 02:55:15;;;;;;;0.40;0.40;;;;;;;8.34;59.15;99444.50;5030498;28;20040;-64
2023/03/09 02:57:41;;;;;;;0.50;0.50;;;;;;;8.82;57.64;99440.13;5030605;28;20040;-65
2023/03/09 03:00:08;;;;;;;0.47;0.47;;;;;;;8.61;58.41;99432.88;5030430;28;20044;-64
2023/03/09 03:02:34;;;;;;;0.40;0.40;;;;;;;8.91;57.19;99427.13;5031086;28;20110;-64
2023/03/09 03:05:00;;;;;;;0.20;0.20;;;;;;;8.66;57.87;99434.81;5012397;28;20057;-64
2023/03/09 03:07:25;;;;;;;0.38;0.38;;;;;;;8.78;57.52;99438.22;5030241;28;20049;-65
2023/03/09 03:09:51;;;;;;;0.40;0.40;;;;;;;8.63;58.48;99440.66;5030472;28;20037;-66
2023/03/09 03:12:17;;;;;;;0.45;0.45;;;;;;;8.51;58.34;99434.63;5030592;28;20034;-66
2023/03/09 03:14:43;;;;;;;0.30;0.30;;;;;;;8.65;58.11;99439.34;5030968;28;20392;-65
2023/03/09 03:17:08;;;;;;;0.30;0.30;;;;;;;8.79;57.92;99440.63;5012328;28;20034;-66
2023/03/09 03:19:34;;;;;;;0.30;0.30;;;;;;;9.23;56.41;99448.69;5011292;28;20054;-63
2023/03/09 03:21:59;;;;;;;0.30;0.30;;;;;;;8.85;57.41;99463.75;5030516;28;20038;-64
2023/03/09 03:24:24;;;;;;;0.40;0.40;;;;;;;8.58;58.29;99462.84;5031148;28;20064;-64
2023/03/09 03:26:50;;;;;;;0.20;0.20;;;;;;;8.06;59.33;99471.34;5030434;28;20032;-65
2023/03/09 03:29:15;;;;;;;0.30;0.30;;;;;;;8.28;59.13;99470.38;5031668;28;20036;-65
2023/03/09 03:31:40;;;;;;;0.30;0.30;;;;;;;8.71;56.99;99497.28;5030053;28;20034;-65
2023/03/09 03:34:06;;;;;;;0.38;0.38;;;;;;;8.98;57.03;99493.91;5030225;28;20030;-65
2023/03/09 03:36:31;;;;;;;0.40;0.40;;;;;;;8.62;58.05;99501.44;5030028;28;20029;-65
2023/03/09 03:38:57;;;;;;;0.30;0.30;;;;;;;8.68;57.13;99507.69;5030065;28;20116;-65
2023/03/09 03:41:22;;;;;;;0.40;0.40;;;;;;;9.08;56.32;99507.47;5032999;28;20021;-64
2023/03/09 03:43:47;;;;;;;0.20;0.20;;;;;;;8.82;57.19;99501.72;5034030;28;20565;-63
2023/03/09 03:46:13;;;;;;;0.50;0.50;;;;;;;8.71;56.94;99509.84;5034111;28;20048;-64
2023/03/09 03:48:38;;;;;;;0.35;0.35;;;;;;;8.55;57.34;99508.03;5015977;28;20120;-65
2023/03/09 03:51:05;;;;;;;0.40;0.40;;;;;;;8.19;59.29;99509.28;5033877;28;20072;-63
2023/03/09 03:53:31;;;;;;;0.45;0.45;;;;;;;7.98;59.53;99516.13;5034122;28;20151;-65
2023/03/09 03:55:56;;;;;;;0.30;0.30;;;;;;;8.55;57.90;99519.53;5033788;28;20468;-65
2023/03/09 03:58:21;;;;;;;0.40;0.40;;;;;;;8.49;57.77;99514.38;5033930;28;20048;-65
2023/03/09 04:00:47;;;;;;;0.32;0.32;;;;;;;8.68;57.63;99507.69;5033728;28;20048;-65
2023/03/09 04:03:12;;;;;;;0.40;0.40;;;;;;;8.35;58.21;99495.16;5033369;28;20039;-64
2023/03/09 04:05:38;;;;;;;0.40;0.40;;;;;;;8.23;58.81;99493.56;5033771;28;20135;-64
2023/03/09 04:08:03;;;;;;;0.40;0.40;;;;;;;8.73;56.43;99513.09;5017217;28;20065;-65
2023/03/09 04:10:29;;;;;;;0.30;0.30;;;;;;;9.15;56.03;99508.06;5013994;28;20426;-65
2023/03/09 04:12:54;;;;;;;0.40;0.40;;;;;;;9.14;56.26;99517.19;5013697;28;20042;-63
2023/03/09 04:15:20;;;;;;;0.22;0.22;;;;;;;8.48;58.15;99508.19;4999247;28;20477;-65
2023/03/09 04:17:47;;;;;;;0.30;0.30;;;;;;;8.78;57.15;99505.16;5033373;28;20465;-65
2023/03/09 04:20:13;;;;;;;0.30;0.30;;;;;;;8.43;57.56;99521.47;5027532;28;20026;-65
2023/03/09 04:22:39;;;;;;;0.40;0.40;;;;;;;8.49;58.24;99530.41;5017315;28;20029;-64
2023/03/09 04:25:04;;;;;;;0.30;0.30;;;;;;;8.88;56.53;99544.66;5033355;28;20068;-64
2023/03/09 04:27:30;;;;;;;0.40;0.40;;;;;;;8.99;56.01;99539.22;5018932;28;20030;-66
2023/03/09 04:29:55;;;;;;;0.30;0.30;;;;;;;9.14;55.24;99541.31;5013835;28;20074;-64
2023/03/09 04:32:21;;;;;;;0.30;0.30;;;;;;;8.96;55.47;99542.41;5014109;28;20382;-65
2023/03/09 04:34:46;;;;;;;0.38;0.38;;;;;;;8.92;55.64;99551.97;5013210;28;20100;-64
2023/03/09 04:37:12;;;;;;;0.30;0.30;;;;;;;8.45;57.52;99556.84;5013039;28;20044;-66
2023/03/09 04:39:37;;;;;;;0.30;0.30;;;;;;;8.41;57.57;99552.25;5013286;28;20041;-65
2023/03/09 04:42:03;;;;;;;0.50;0.50;;;;;;;8.33;58.35;99558.81;5013231;28;20020;-65
2023/03/09 04:44:28;;;;;;;0.28;0.28;;;;;;;8.42;57.74;99552.00;5013726;28;20385;-63
2023/03/09 04:46:54;;;;;;;0.45;0.45;;;;;;;8.37;58.48;99554.56;5013083;28;20467;-64
2023/03/09 04:49:19;;;;;;;0.40;0.40;;;;;;;9.07;55.75;99565.59;5013129;28;20037;-65
2023/03/09 04:51:45;;;;;;;0.40;0.40;;;;;;;8.53;57.06;99561.00;5012066;28;20041;-64
2023/03/09 04:54:10;;;;;;;0.30;0.30;;;;;;;8.36;57.89;99562.84;5024425;28;20544;-66
2023/03/09 04:56:35;;;;;;;0.30;0.30;;;;;;;8.76;57.18;99564.34;5033392;28;20159;-65
2023/03/09 04:59:01;;;;;;;0.30;0.30;;;;;;;8.63;57.19;99567.31;5032884;28;20025;-64
2023/03/09 05:01:26;;;;;;;0.30;0.30;;;;;;;8.96;56.69;99577.22;5032519;28;20040;-65
2023/03/09 05:03:51;;;;;;;0.30;0.30;;;;;;;9.27;55.21;99581.13;5032147;28;20052;-65
2023/03/09 05:06:17;;;;;;;0.20;0.20;;;;;;;9.20;55.08;99575.94;5032260;28;20040;-65
2023/03/09 05:08:42;;;;;;;0.40;0.40;;;;;;;9.14;55.80;99579.63;5032378;28;20473;-65
2023/03/09 05:11:07;;;;;;;0.30;0.30;;;;;;;9.35;55.24;99580.72;5032039;28;20052;-65
2023/03/09 05:13:33;;;;;;;0.32;0.32;;;;;;;9.13;55.81;99590.59;5032152;28;20080;-64
2023/03/09 05:15:58;;;;;;;0.47;0.47;;;;;;;9.11;55.62;99580.13;5032109;28;20367;-65
2023/03/09 05:18:23;;;;;;;0.38;0.38;;;;;;;9.02;56.02;99573.53;5031925;28;20055;-65
2023/03/09 05:20:49;;;;;;;0.38;0.38;;;;;;;9.25;55.38;99578.72;5032002;28;20088;-64
2023/03/09 05:23:14;;;;;;;0.30;0.30;;;;;;;9.15;55.56;99575.88;5032350;28;20040;-65
2023/03/09 05:25:39;;;;;;;0.30;0.30;;;;;;;9.25;55.69;99570.69;5032119;28;20045;-65
2023/03/09 05:28:05;;;;;;;0.30;0.30;;;;;;;9.12;55.92;99578.25;5031709;28;20523;-63
2023/03/09 05:30:31;;;;;;;0.30;0.30;;;;;;;9.19;55.13;99590.41;5032033;28;20042;-66
2023/03/09 05:32:57;;;;;;;0.30;0.30;;;;;;;9.17;54.75;99597.91;5032229;28;20401;-65
2023/03/09 05:35:22;;;;;;;0.28;0.28;;;;;;;8.94;56.34;99610.66;5033058;28;20036;-64
2023/03/09 05:37:47;;;;;;;0.38;0.38;;;;;;;9.04;55.64;99611.63;5014183;28;20033;-65
2023/03/09 05:40:14;;;;;;;0.40;0.40;;;;;;;9.17;55.87;99624.69;5013471;28;20094;-65
2023/03/09 05:42:41;;;;;;;0.20;0.20;;;;;;;9.19;55.64;99637.84;5031893;28;20076;-64
2023/03/09 05:45:07;;;;;;;0.30;0.30;;;;;;;9.28;55.11;99639.03;5032050;28;20044;-66
2023/03/09 05:47:32;;;;;;;0.35;0.35;;;;;;;9.39;54.72;99638.97;5032038;28;20101;-67
2023/03/09 05:49:58;;;;;;;0.40;0.40;;;;;;;9.60;54.54;99630.13;5031705;28;20120;-64
2023/03/09 05:52:24;;;;;;;0.30;0.30;;;;;;;9.44;54.68;99635.53;5031606;28;20044;-64
2023/03/09 05:54:49;;;;;;;0.35;0.35;;;;;;;9.13;56.06;99642.31;5031274;28;20045;-64
2023/03/09 05:57:15;;;;;;;0.30;0.30;;;;;;;9.34;55.42;99646.91;5031452;28;20039;-64
2023/03/09 05:59:40;;;;;;;0.40;0.40;;;;;;;9.12;55.56;99642.56;5032419;28;20462;-64
2023/03/09 06:02:06;;;;;;;0.50;0.50;;;;;;;9.45;54.71;99639.84;5031302;28;20037;-64
2023/03/09 06:04:32;;;;;;;0.32;0.32;;;;;;;9.40;54.65;99643.25;5031533;28;20119;-64
2023/03/09 06:06:57;;;;;;;0.32;0.32;;;;;;;9.40;54.81;99648.63;5031346;28;20098;-64
2023/03/09 06:09:23;;;;;;;0.30;0.30;;;;;;;9.24;55.94;99654.81;5030983;28;20053;-65
2023/03/09 06:11:48;;;;;;;0.40;0.40;;;;;;;9.53;54.99;99656.31;5031325;28;20474;-64
2023/03/09 06:14:14;;;;;;;0.30;0.30;;;;;;;9.22;55.94;99658.81;5026443;28;20021;-64
2023/03/09 06:16:39;;;;;;;0.30;0.30;;;;;;;9.28;55.79;99655.94;5028673;28;20041;-65
2023/03/09 06:19:05;;;;;;;0.32;0.32;;;;;;;9.52;54.74;99661.91;5031020;28;20037;-65
2023/03/09 06:21:30;;;;;;;0.25;0.25;;;;;;;9.47;55.08;99665.34;4999440;28;20033;-65
2023/03/09 06:23:56;;;;;;;0.40;0.40;;;;;;;9.64;54.41;99665.31;5021588;28;20033;-64
2023/03/09 06:26:23;;;;;;;0.50;0.50;;;;;;;9.46;55.09;99674.44;5022846;28;20021;-66
2023/03/09 06:28:48;;;;;;;0.40;0.40;;;;;;;9.41;55.74;99673.56;5025216;28;20395;-65
2023/03/09 06:31:15;;;;;;;0.30;0.30;;;;;;;9.36;55.22;99671.63;5025500;28;20048;-65
2023/03/09 06:33:42;;;;;;;0.30;0.30;;;;;;;9.04;55.19;99683.19;5005229;28;20184;-64
2023/03/09 06:36:12;;;;;;;0.30;0.30;;;;;;;9.30;55.24;99688.69;5027112;28;20041;-66
2023/03/09 06:38:38;;;;;;;0.40;0.40;;;;;;;9.21;56.42;99687.47;5023421;28;20221;-65
2023/03/09 06:41:03;;;;;;;0.50;0.50;;;;;;;9.10;56.29;99691.03;5003137;28;20037;-65
2023/03/09 06:43:28;;;;;;;0.40;0.40;;;;;;;9.41;55.45;99685.13;5005974;28;20124;-65
2023/03/09 06:45:54;;;;;;;0.40;0.40;;;;;;;9.52;54.50;99675.31;5024220;28;20087;-65
2023/03/09 06:48:19;;;;;;;0.30;0.30;;;;;;;8.84;56.67;99678.28;5028526;28;20528;-66
2023/03/09 06:50:45;;;;;;;0.40;0.40;;;;;;;9.06;56.59;99671.13;5021503;28;20151;-64
2023/03/09 06:53:11;;;;;;;0.30;0.30;;;;;;;8.79;57.81;99667.47;5026032;28;20432;-64
2023/03/09 06:55:38;;;;;;;0.38;0.38;;;;;;;8.92;56.92;99677.06;5010591;28;20552;-65
2023/03/09 06:58:03;;;;;;;0.30;0.30;;;;;;;9.49;55.51;99684.66;5015804;28;20075;-66
2023/03/09 07:00:28;;;;;;;0.30;0.30;;;;;;;9.47;55.69;99683.31;5021649;28;20587;-65
2023/03/09 07:02:54;;;;;;;0.38;0.38;;;;;;;9.71;55.01;99696.25;5022713;28;20035;-65
2023/03/09 07:05:19;;;;;;;0.38;0.38;;;;;;;9.47;55.78;99702.88;5030317;28;20051;-65
2023/03/09 07:07:44;;;;;;;0.40;0.40;;;;;;;9.57;55.27;99715.66;5017735;28;20091;-65
2023/03/09 07:10:11;;;;;;;0.30;0.30;;;;;;;9.65;54.79;99728.63;5028368;28;20048;-66
2023/03/09 07:12:36;;;;;;;0.30;0.30;;;;;;;9.83;54.76;99741.75;5022809;28;20046;-65
2023/03/09 07:15:02;;;;;;;0.43;0.43;;;;;;;9.79;54.57;99740.63;5029575;28;20393;-66
2023/03/09 07:17:27;;;;;;;0.32;0.32;;;;;;;9.23;55.57;99744.34;5033505;28;20041;-67
2023/03/09 07:19:53;;;;;;;0.40;0.40;;;;;;;9.78;54.80;99752.44;5016373;28;20091;-65
2023/03/09 07:22:18;;;;;;;0.30;0.30;;;;;;;9.74;55.33;99759.34;5032867;28;20556;-66
2023/03/09 07:24:44;;;;;;;0.50;0.50;;;;;;;9.25;55.92;99765.53;5017247;28;20675;-66
2023/03/09 07:27:09;;;;;;;0.30;0.30;;;;;;;9.81;54.49;99762.66;5016779;28;20072;-64
2023/03/09 07:29:35;;;;;;;0.40;0.40;;;;;;;9.75;54.94;99769.81;5035969;28;20408;-65
2023/03/09 07:32:03;;;;;;;0.40;0.40;;;;;;;9.44;56.26;99775.78;5033652;28;20062;-64
2023/03/09 07:34:31;;;;;;;0.28;0.28;;;;;;;9.59;55.67;99777.91;5034409;28;20088;-65
2023/03/09 07:36:57;;;;;;;0.20;0.20;;;;;;;9.33;55.07;99775.84;5034061;28;20037;-65
2023/03/09 07:39:22;;;;;;;0.30;0.30;;;;;;;10.04;54.24;99783.13;5035428;28;20045;-65
2023/03/09 07:41:48;;;;;;;0.30;0.30;;;;;;;10.19;53.83;99784.16;5035416;28;20023;-66
2023/03/09 07:44:13;;;;;;;0.45;0.45;;;;;;;10.34;53.95;99789.72;5036950;28;20108;-65
2023/03/09 07:46:38;;;;;;;0.20;0.20;;;;;;;10.42;53.47;99786.59;5036635;28;20509;-65
2023/03/09 07:49:04;;;;;;;0.32;0.32;;;;;;;10.49;53.15;99798.00;5036432;28;20033;-67
2023/03/09 07:51:29;;;;;;;0.35;0.35;;;;;;;10.60;53.72;99794.34;5035577;28;20038;-64
2023/03/09 07:53:55;;;;;;;0.30;0.30;;;;;;;10.16;54.37;99803.44;5035641;28;20028;-68
2023/03/09 07:56:20;;;;;;;0.40;0.40;;;;;;;10.28;53.41;99811.41;5036033;28;20059;-66
2023/03/09 07:58:46;;;;;;;0.35;0.35;;;;;;;10.31;54.07;99811.72;5035377;28;20033;-65
2023/03/09 08:01:14;;;;;;;0.28;0.28;;;;;;;10.45;53.42;99820.22;5035197;28;20038;-64
2023/03/09 08:03:39;;;;;;;0.20;0.20;;;;;;;10.46;53.62;99819.16;5035301;28;20501;-65
2023/03/09 08:06:05;;;;;;;0.32;0.32;;;;;;;10.59;53.15;99821.47;5035240;28;20053;-65
2023/03/09 08:08:31;;;;;;;0.40;0.40;;;;;;;10.73;52.20;99828.06;5035520;28;20053;-64
2023/03/09 08:10:57;;;;;;;0.25;0.25;;;;;;;10.26;53.16;99827.75;5035175;28;20041;-64
2023/03/09 08:13:23;;;;;;;0.22;0.22;;;;;;;10.78;52.62;99833.53;5035330;28;20055;-65
2023/03/09 08:15:50;;;;;;;0.38;0.38;;;;;;;10.41;53.84;99827.97;5032250;28;20034;-65
2023/03/09 08:18:20;;;;;;;0.40;0.40;;;;;;;9.60;55.43;99825.91;5035310;28;20071;-65
2023/03/09 08:20:45;;;;;;;0.30;0.30;;;;;;;10.63;52.87;99811.03;5035114;28;20067;-64
2023/03/09 08:23:11;;;;;;;0.30;0.30;;;;;;;10.70;52.78;99820.53;5035557;28;20037;-64
2023/03/09 08:25:37;;;;;;;0.35;0.35;;;;;;;11.06;52.12;99819.88;5035071;28;20037;-65
2023/03/09 08:28:03;;;;;;;0.40;0.40;;;;;;;10.28;53.50;99819.47;5030989;28;20441;-66
2023/03/09 08:30:29;;;;;;;0.30;0.30;;;;;;;10.60;52.98;99815.03;5031754;28;20087;-67
2023/03/09 08:32:57;;;;;;;0.30;0.30;;;;;;;10.85;52.42;99822.59;5032117;28;20076;-66
2023/03/09 08:35:25;;;;;;;0.30;0.30;;;;;;;10.76;52.27;99829.47;5032447;28;20408;-66
2023/03/09 08:37:50;;;;;;;0.30;0.30;;;;;;;10.26;54.24;99843.84;5031592;28;20033;-64
2023/03/09 08:40:16;;;;;;;0.32;0.32;;;;;;;10.72;53.07;99847.97;5031785;28;20098;-65
2023/03/09 08:42:43;;;;;;;0.38;0.38;;;;;;;11.00;52.10;99857.69;5031815;28;20504;-64
2023/03/09 08:45:09;;;;;;;0.50;0.50;;;;;;;11.00;52.09;99861.22;5031919;28;20124;-67
2023/03/09 08:47:34;;;;;;;0.20;0.20;;;;;;;10.85;51.93;99863.69;5033287;28;20025;-65
2023/03/09 08:50:03;;;;;;;0.43;0.43;;;;;;;10.44;53.22;99862.38;5014040;28;20416;-67
2023/03/09 08:52:34;;;;;;;0.20;0.20;;;;;;;11.04;51.92;99866.88;5032498;28;20045;-65
2023/03/09 08:55:00;;;;;;;0.32;0.32;;;;;;;11.16;51.66;99870.25;5024769;28;20037;-65
2023/03/09 08:57:27;;;;;;;0.35;0.35;;;;;;;10.94;51.53;99862.22;5031652;28;20056;-66
2023/03/09 08:59:52;;;;;;;0.38;0.38;;;;;;;10.69;52.19;99856.53;5032435;28;20041;-64
2023/03/09 09:02:18;;;;;;;0.40;0.40;;;;;;;10.70;52.19;99858.16;5033527;28;20017;-67
2023/03/09 09:04:44;;;;;;;0.50;0.50;;;;;;;10.79;52.05;99863.91;5033236;28;20040;-65
2023/03/09 09:07:10;;;;;;;0.50;0.50;;;;;;;10.62;52.29;99872.00;5032750;28;20129;-66
2023/03/09 09:09:37;;;;;;;0.22;0.22;;;;;;;10.85;51.97;99865.59;5032291;28;20057;-65
2023/03/09 09:12:02;;;;;;;0.40;0.40;;;;;;;10.89;52.07;99880.16;5014303;28;20049;-64
2023/03/09 09:14:28;;;;;;;0.22;0.22;;;;;;;11.16;51.43;99892.56;5032840;28;20037;-65
2023/03/09 09:16:53;;;;;;;0.20;0.20;;;;;;;11.03;50.83;99903.69;5032366;28;20453;-65
2023/03/09 09:19:19;;;;;;;0.38;0.38;;;;;;;11.31;51.28;99913.44;5030390;28;20042;-66
2023/03/09 09:21:44;;;;;;;0.30;0.30;;;;;;;11.29;50.52;99910.19;5032320;28;20068;-65
2023/03/09 09:24:09;;;;;;;0.50;0.50;;;;;;;11.68;49.93;99914.38;5031966;28;20057;-66
2023/03/09 09:26:35;;;;;;;0.40;0.40;;;;;;;11.43;50.57;99923.00;5032835;28;20057;-64
2023/03/09 09:29:01;;;;;;;0.28;0.28;;;;;;;11.24;51.17;99913.63;5032437;28;20041;-65
2023/03/09 09:31:27;;;;;;;0.30;0.30;;;;;;;11.39;50.77;99921.06;5031908;28;20125;-65
2023/03/09 09:33:53;;;;;;;0.50;0.50;;;;;;;11.52;50.07;99926.84;5032197;28;20041;-65
2023/03/09 09:36:19;;;;;;;0.32;0.32;;;;;;;10.60;52.12;99926.00;5031980;28;20038;-65
2023/03/09 09:38:45;;;;;;;0.47;0.47;;;;;;;11.35;50.20;99934.22;5031982;28;20032;-67
2023/03/09 09:41:13;;;;;;;0.38;0.38;;;;;;;11.66;50.25;99929.97;5014200;28;20336;-68
2023/03/09 09:43:41;;;;;;;0.50;0.50;;;;;;;11.10;50.23;99941.97;5031719;28;20124;-65
2023/03/09 09:46:11;;;;;;;0.40;0.40;;;;;;;11.22;51.46;99926.50;5031924;28;20041;-66
2023/03/09 09:48:40;;;;;;;0.50;0.50;;;;;;;11.86;49.12;99918.59;5014253;28;20040;-65
2023/03/09 09:51:10;;;;;;;0.30;0.30;;;;;;;12.91;46.91;99919.31;5031781;28;20052;-66
2023/03/09 09:53:57;;;;;;;0.30;0.30;;;;;;;12.84;47.23;99915.22;5032350;28;20025;-66
2023/03/09 09:56:30;;;;;;;0.40;0.40;;;;;;;12.43;48.15;99924.16;5032301;28;20088;-65
2023/03/09 09:59:03;;;;;;;0.30;0.30;;;;;;;12.94;47.72;99934.16;5014577;28;20037;-63
2023/03/09 10:01:48;;;;;;;0.20;0.20;;;;;;;13.05;46.07;99919.69;5031179;28;20132;-66
2023/03/09 10:04:26;;;;;;;0.30;0.30;;;;;;;12.06;48.61;99919.59;5031507;28;20103;-65
2023/03/09 10:06:54;;;;;;;0.50;0.50;;;;;;;11.75;48.27;99925.78;5031269;28;20390;-65
2023/03/09 10:09:28;;;;;;;0.45;0.45;;;;;;;13.07;46.97;99923.72;5031243;28;20049;-66
2023/03/09 10:11:59;;;;;;;0.43;0.43;;;;;;;12.93;46.38;99913.66;5031204;28;20040;-65
2023/03/09 10:14:30;;;;;;;0.30;0.30;;;;;;;13.16;44.99;99918.66;5031990;28;20496;-65
2023/03/09 10:17:20;;;;;;;0.30;0.30;;;;;;;13.17;44.80;99915.66;5031061;28;20442;-66
2023/03/09 10:19:48;;;;;;;0.30;0.30;;;;;;;12.97;45.98;99917.47;5030970;28;20049;-65
2023/03/09 10:22:21;;;;;;;0.20;0.20;;;;;;;13.04;46.58;99921.56;5031146;28;20041;-66
2023/03/09 10:24:50;;;;;;;0.30;0.30;;;;;;;12.58;46.40;99924.25;5031365;28;20038;-65
2023/03/09 10:27:47;;;;;;;0.30;0.30;;;;;;;12.47;47.00;99927.94;5031128;28;20037;-66
2023/03/09 10:30:27;;;;;;;0.30;0.30;;;;;;;12.18;48.07;99938.25;5031306;28;20057;-64
2023/03/09 10:32:57;;;;;;;0.40;0.40;;;;;;;12.91;46.38;99948.19;5030783;28;20029;-64
2023/03/09 10:35:41;;;;;;;0.30;0.30;;;;;;;12.69;47.25;99959.09;5031642;28;20080;-65
2023/03/09 10:38:17;;;;;;;0.20;0.20;;;;;;;12.89;47.03;99967.28;5030712;28;20072;-66
2023/03/09 10:40:45;;;;;;;0.35;0.35;;;;;;;12.61;47.57;99954.19;5030567;28;20033;-65
2023/03/09 10:43:19;;;;;;;0.30;0.30;;;;;;;13.18;46.05;99956.97;5030771;28;20061;-64
2023/03/09 10:45:44;;;;;;;0.30;0.30;;;;;;;12.56;46.62;99969.53;5030612;28;20044;-65
2023/03/09 10:48:27;;;;;;;0.47;0.47;;;;;;;12.31;47.91;99970.97;5030623;28;20037;-66
2023/03/09 10:51:02;;;;;;;0.30;0.30;;;;;;;12.49;47.55;99960.84;5029570;28;21984;-64
2023/03/09 10:53:34;;;;;;;0.40;0.40;;;;;;;12.28;47.87;99949.91;5031241;28;20120;-65
2023/03/09 10:56:07;;;;;;;0.40;0.40;;;;;;;12.11;47.85;99943.84;5030310;28;20038;-63
2023/03/09 10:58:33;;;;;;;0.35;0.35;;;;;;;11.64;49.21;99933.94;5030700;28;20037;-65
2023/03/09 11:01:20;;;;;;;0.30;0.30;;;;;;;11.25;50.66;99934.09;5030400;28;20033;-64
2023/03/09 11:03:45;;;;;;;0.35;0.35;;;;;;;11.10;50.41;99922.34;5030511;28;20041;-65
2023/03/09 11:06:32;;;;;;;0.40;0.40;;;;;;;12.08;48.79;99936.31;5030322;28;20579;-65
2023/03/09 11:09:13;;;;;;;0.40;0.40;;;;;;;12.12;48.97;99923.94;5030503;28;20064;-65
2023/03/09 11:11:39;;;;;;;0.30;0.30;;;;;;;11.65;49.23;99933.72;5031401;28;20025;-66
2023/03/09 11:14:20;;;;;;;0.52;0.52;;;;;;;12.12;49.60;99941.97;5030518;28;20035;-65
2023/03/09 11:16:51;;;;;;;0.35;0.35;;;;;;;12.08;49.21;99944.38;5030695;28;20112;-66
2023/03/09 11:19:18;;;;;;;0.50;0.50;;;;;;;12.08;49.84;99948.94;5030419;28;20405;-66
2023/03/09 11:21:55;;;;;;;0.38;0.38;;;;;;;12.46;48.56;99950.59;5030277;28;20029;-66
2023/03/09 11:24:30;;;;;;;0.30;0.30;;;;;;;11.77;49.66;99949.75;5030336;28;20053;-67
2023/03/09 11:27:12;;;;;;;0.22;0.22;;;;;;;12.24;48.95;99950.69;5030054;28;20028;-66
2023/03/09 11:29:52;;;;;;;0.50;0.50;;;;;;;11.99;48.58;99947.81;5031160;28;20146;-65
2023/03/09 11:32:18;;;;;;;0.40;0.40;;;;;;;12.13;48.35;99949.78;5030201;28;20057;-65
2023/03/09 11:34:45;;;;;;;0.30;0.30;;;;;;;12.30;48.32;99957.75;5030098;28;20030;-65
2023/03/09 11:37:18;;;;;;;0.43;0.43;;;;;;;12.61;48.24;99953.38;5030061;28;20033;-64
2023/03/09 11:39:51;;;;;;;0.32;0.32;;;;;;;11.70;49.71;99963.38;5029793;28;20086;-66